Boston, Massachusetts
Traffic Map
Current Weather Conditions
Boston, Massachusetts
Overcast
Overcast
11°
Feels Like: 11°
Wind Chill: 11° Ceiling: 6000
Heat Index: 11° Visibility: 10mi
Dew Point: 10° Wind: 0mph
Humidity: 93% Direction: ° ()
Pressure: 29.98in Gusts: 0mph
Raw Report DataKBOS 210954Z 00000KT 10SM BKN060 OVC100 11/10 A2998 RMK AO2 SLP151 T01110100
Traffic Incident Summary
Active as of:
Severity:
Category:
InformationThere was an issue retrieving the traffic information for this location. Please try a different location or try again shortly.
Advertisements
Track Severe Weather on mobile